createdAt,value
2022-10-17T00:00:58.535Z,3.70
2022-10-17T00:03:25.123Z,3.20
2022-10-17T00:05:53.020Z,3.95
2022-10-17T00:11:06.844Z,3.38
2022-10-17T00:13:37.713Z,3.78
2022-10-17T00:16:05.248Z,3.58
2022-10-17T00:18:32.920Z,3.33
2022-10-17T00:20:59.473Z,3.70
2022-10-17T00:23:30.236Z,3.67
2022-10-17T00:26:07.003Z,3.70
2022-10-17T00:28:33.586Z,3.65
2022-10-17T00:31:02.692Z,3.63
2022-10-17T00:33:30.862Z,3.45
2022-10-17T00:36:05.904Z,3.75
2022-10-17T00:38:32.921Z,3.60
2022-10-17T00:40:59.560Z,4.03
2022-10-17T00:43:29.793Z,3.80
2022-10-17T00:45:57.491Z,3.58
2022-10-17T00:48:56.063Z,3.97
2022-10-17T00:51:33.018Z,3.70
2022-10-17T00:54:15.625Z,3.40
2022-10-17T00:56:44.002Z,3.88
2022-10-17T00:59:13.453Z,3.95
2022-10-17T01:01:49.328Z,3.60
2022-10-17T01:04:16.442Z,3.97
2022-10-17T01:06:45.751Z,3.97
2022-10-17T01:16:18.981Z,4.07
2022-10-17T01:18:48.567Z,4.15
2022-10-17T01:21:33.556Z,4.15
2022-10-17T01:24:19.113Z,3.83
2022-10-17T01:27:06.562Z,5.00
2022-10-17T01:30:11.468Z,4.10
2022-10-17T01:32:58.181Z,4.53
2022-10-17T01:35:42.494Z,4.60
2022-10-17T01:38:18.557Z,4.78
2022-10-17T01:40:54.078Z,4.68
2022-10-17T01:43:40.757Z,4.47
2022-10-17T01:46:16.575Z,4.57
2022-10-17T01:48:46.098Z,4.45
2022-10-17T01:51:18.874Z,4.82
2022-10-17T01:54:16.493Z,4.93
2022-10-17T01:59:21.913Z,4.20
2022-10-17T02:01:51.533Z,4.60
2022-10-17T02:04:18.581Z,4.65
2022-10-17T02:06:47.699Z,4.53
2022-10-17T02:09:26.590Z,4.65
2022-10-17T02:12:27.732Z,5.15
2022-10-17T02:15:25.370Z,4.53
2022-10-17T02:20:37.893Z,4.78
2022-10-17T02:23:28.295Z,4.70
2022-10-17T02:26:10.018Z,5.35
2022-10-17T02:28:45.846Z,5.20
2022-10-17T02:31:17.801Z,5.40
2022-10-17T02:33:50.419Z,5.65
2022-10-17T02:36:26.615Z,5.28
2022-10-17T02:38:55.238Z,5.32
2022-10-17T02:41:24.664Z,5.80
2022-10-17T02:43:53.477Z,5.22
2022-10-17T02:46:23.135Z,5.60
2022-10-17T02:49:01.765Z,4.97
2022-10-17T02:52:04.533Z,5.72
2022-10-17T02:54:43.653Z,5.40
2022-10-17T02:57:26.139Z,5.47
2022-10-17T02:59:53.445Z,5.50
2022-10-17T03:02:20.025Z,5.53
2022-10-17T03:04:47.460Z,5.32
2022-10-17T03:07:14.148Z,5.55
2022-10-17T03:09:41.015Z,5.07
2022-10-17T03:12:08.167Z,5.20
2022-10-17T03:14:37.905Z,5.25
2022-10-17T03:17:04.765Z,5.63
2022-10-17T03:19:32.017Z,4.93
2022-10-17T03:21:58.842Z,5.13
2022-10-17T03:24:25.846Z,5.70
2022-10-17T03:26:52.359Z,5.67
2022-10-17T03:29:19.121Z,4.88
2022-10-17T03:31:45.927Z,4.55
2022-10-17T03:34:12.600Z,5.50
2022-10-17T03:36:39.188Z,5.38
2022-10-17T03:39:05.738Z,5.00
2022-10-17T03:41:32.236Z,5.22
2022-10-17T03:43:59.113Z,5.45
2022-10-17T03:46:28.233Z,5.25
2022-10-17T03:48:54.869Z,5.47
2022-10-17T03:51:21.939Z,5.53
2022-10-17T03:53:48.587Z,5.23
2022-10-17T03:56:16.334Z,5.07
2022-10-17T03:58:46.015Z,4.68
2022-10-17T04:01:16.268Z,5.10
2022-10-17T04:03:43.375Z,5.15
2022-10-17T04:06:12.557Z,4.57
2022-10-17T04:08:40.270Z,5.18
2022-10-17T04:11:14.389Z,5.30
2022-10-17T04:13:41.183Z,5.40
2022-10-17T04:16:12.520Z,5.10
2022-10-17T04:18:39.162Z,4.85
2022-10-17T04:21:07.219Z,5.40
2022-10-17T04:23:35.142Z,4.80
2022-10-17T04:28:35.058Z,4.97
2022-10-17T04:31:06.956Z,5.20
2022-10-17T04:33:35.174Z,5.05
2022-10-17T04:36:06.465Z,5.00
2022-10-17T04:38:34.358Z,5.43
2022-10-17T04:43:32.654Z,5.40
2022-10-17T04:46:00.111Z,5.00
2022-10-17T04:48:29.180Z,5.18
2022-10-17T04:50:57.392Z,5.40
2022-10-17T04:53:27.027Z,4.72
2022-10-17T04:55:54.081Z,5.38
2022-10-17T04:58:21.274Z,5.10
2022-10-17T05:00:48.108Z,5.25
2022-10-17T05:03:17.033Z,5.10
2022-10-17T05:05:43.789Z,5.47
2022-10-17T05:08:11.859Z,5.38
2022-10-17T05:10:40.246Z,4.78
2022-10-17T05:13:07.264Z,4.85
2022-10-17T05:15:34.325Z,4.80
2022-10-17T05:18:01.077Z,4.97
2022-10-17T05:20:28.132Z,4.72
2022-10-17T05:22:54.873Z,4.97
2022-10-17T05:25:22.185Z,4.95
2022-10-17T05:27:49.843Z,5.22
2022-10-17T05:30:16.439Z,5.07
2022-10-17T05:32:42.985Z,5.10
2022-10-17T05:35:09.821Z,4.90
2022-10-17T05:37:36.585Z,4.30
2022-10-17T05:40:03.878Z,5.00
2022-10-17T05:42:31.089Z,5.10
2022-10-17T05:44:58.737Z,5.30
2022-10-17T05:47:25.202Z,5.97
2022-10-17T05:49:52.650Z,5.07
2022-10-17T05:52:19.383Z,5.25
2022-10-17T05:54:46.038Z,5.00
2022-10-17T05:57:15.344Z,5.13
2022-10-17T05:59:42.150Z,4.72
2022-10-17T06:02:12.695Z,4.55
2022-10-17T06:04:45.292Z,5.28
2022-10-17T06:07:12.917Z,4.97
2022-10-17T06:09:43.135Z,5.13
2022-10-17T06:12:12.662Z,4.97
2022-10-17T06:14:39.604Z,4.65
2022-10-17T06:17:06.522Z,5.25
2022-10-17T06:19:33.385Z,4.70
2022-10-17T06:22:00.164Z,5.10
2022-10-17T06:24:28.969Z,4.93
2022-10-17T06:27:00.357Z,4.72
2022-10-17T06:29:27.524Z,4.93
2022-10-17T06:31:54.996Z,4.65
2022-10-17T06:34:22.450Z,4.70
2022-10-17T06:36:49.527Z,5.00
2022-10-17T06:39:16.172Z,6.07
2022-10-17T06:41:44.526Z,5.00
2022-10-17T06:44:12.003Z,4.70
2022-10-17T06:46:41.945Z,4.88
2022-10-17T06:49:10.712Z,4.75
2022-10-17T06:51:38.265Z,4.57
2022-10-17T06:54:05.248Z,4.80
2022-10-17T06:56:32.226Z,4.72
2022-10-17T06:58:59.067Z,4.80
2022-10-17T07:01:26.779Z,5.18
2022-10-17T07:03:53.431Z,4.95
2022-10-17T07:06:20.396Z,4.93
2022-10-17T07:08:47.336Z,4.53
2022-10-17T07:11:17.285Z,4.78
2022-10-17T07:13:44.386Z,4.57
2022-10-17T07:16:12.205Z,4.55
2022-10-17T07:18:41.842Z,4.75
2022-10-17T07:21:09.229Z,4.70
2022-10-17T07:23:37.378Z,5.10
2022-10-17T07:26:09.539Z,4.00
2022-10-17T07:28:39.506Z,4.60
2022-10-17T07:31:10.899Z,4.13
2022-10-17T07:33:37.858Z,4.53
2022-10-17T07:36:07.356Z,4.73
2022-10-17T07:38:34.724Z,4.25
2022-10-17T07:41:03.111Z,4.43
2022-10-17T07:43:30.696Z,4.40
2022-10-17T07:45:57.511Z,5.13
2022-10-17T07:48:25.693Z,4.40
2022-10-17T07:50:52.333Z,4.70
2022-10-17T07:53:20.139Z,4.43
2022-10-17T07:58:15.617Z,4.72
2022-10-17T08:00:42.833Z,4.55
2022-10-17T08:03:11.455Z,4.45
2022-10-17T08:05:39.395Z,4.38
2022-10-17T08:08:06.027Z,4.72
2022-10-17T08:10:32.636Z,4.88
2022-10-17T08:12:59.481Z,5.00
2022-10-17T08:15:30.839Z,4.70
2022-10-17T08:17:59.507Z,4.38
2022-10-17T08:23:12.018Z,5.10
2022-10-17T08:25:41.306Z,4.82
2022-10-17T08:28:08.727Z,4.30
2022-10-17T08:30:35.577Z,4.63
2022-10-17T08:33:02.618Z,4.70
2022-10-17T08:36:22.657Z,4.90
2022-10-17T08:38:55.069Z,4.22
2022-10-17T08:42:13.195Z,5.30
2022-10-17T08:44:46.092Z,4.65
2022-10-17T08:47:41.882Z,5.03
2022-10-17T08:50:18.418Z,4.80
2022-10-17T08:52:52.021Z,4.85
2022-10-17T08:55:34.472Z,4.60
2022-10-17T08:58:01.904Z,4.75
2022-10-17T09:00:31.456Z,4.65
2022-10-17T09:03:07.403Z,5.10
2022-10-17T09:05:44.232Z,4.72
2022-10-17T09:08:36.969Z,5.05
2022-10-17T09:11:42.021Z,5.05
2022-10-17T09:14:30.360Z,4.40
2022-10-17T09:17:19.501Z,4.70
2022-10-17T09:20:03.527Z,4.50
2022-10-17T09:22:45.455Z,4.75
2022-10-17T09:25:15.857Z,4.25
2022-10-17T09:27:47.627Z,4.72
2022-10-17T09:30:45.085Z,4.82
2022-10-17T09:33:34.943Z,4.15
2022-10-17T09:36:17.567Z,4.32
2022-10-17T09:38:48.721Z,4.82
2022-10-17T09:41:45.283Z,5.55
2022-10-17T09:44:31.741Z,5.22
2022-10-17T09:47:19.045Z,5.28
2022-10-17T09:49:48.054Z,4.78
2022-10-17T09:52:25.750Z,4.47
2022-10-17T09:58:02.271Z,4.53
2022-10-17T10:00:38.282Z,4.18
2022-10-17T10:03:19.527Z,4.18
2022-10-17T10:06:18.775Z,4.60
2022-10-17T10:08:58.734Z,4.15
2022-10-17T10:11:50.165Z,4.10
2022-10-17T10:14:33.643Z,4.90
2022-10-17T10:17:02.727Z,4.47
2022-10-17T10:19:37.184Z,4.22
2022-10-17T10:22:14.247Z,3.88
2022-10-17T10:24:43.515Z,4.68
2022-10-17T10:27:18.325Z,4.15
2022-10-17T10:29:55.619Z,4.30
2022-10-17T10:32:26.683Z,4.10
2022-10-17T10:34:57.030Z,4.10
2022-10-17T10:37:27.487Z,4.53
2022-10-17T10:40:01.143Z,3.97
2022-10-17T10:42:39.426Z,4.10
2022-10-17T10:48:21.904Z,4.47
2022-10-17T10:50:57.640Z,4.63
2022-10-17T10:53:44.216Z,4.72
2022-10-17T10:56:20.637Z,4.37
2022-10-17T10:59:08.678Z,4.20
2022-10-17T11:01:54.437Z,5.05
2022-10-17T11:04:29.878Z,4.53
2022-10-17T11:07:05.512Z,4.60
2022-10-17T11:09:58.641Z,4.05
2022-10-17T11:12:39.513Z,4.63
2022-10-17T11:15:25.716Z,4.20
2022-10-17T11:17:57.028Z,4.53
2022-10-17T11:20:42.546Z,4.22
2022-10-17T11:23:44.559Z,3.80
2022-10-17T11:26:26.157Z,3.83
2022-10-17T11:28:54.901Z,4.38
2022-10-17T11:31:25.778Z,4.38
2022-10-17T11:33:58.582Z,4.05
2022-10-17T11:36:30.767Z,4.35
2022-10-17T11:39:03.406Z,4.40
2022-10-17T11:41:37.842Z,4.18
2022-10-17T11:44:13.415Z,4.10
2022-10-17T11:46:43.273Z,3.90
2022-10-17T11:49:20.596Z,4.70
2022-10-17T11:54:48.072Z,3.65
2022-10-17T11:57:20.707Z,3.97
2022-10-17T12:00:22.378Z,4.22
2022-10-17T12:03:12.804Z,3.70
2022-10-17T12:05:46.511Z,3.60
2022-10-17T12:08:31.418Z,3.90
2022-10-17T12:11:08.508Z,4.03
2022-10-17T12:13:35.826Z,3.95
2022-10-17T12:16:29.583Z,3.80
2022-10-17T12:19:02.338Z,3.80
2022-10-17T12:21:49.277Z,3.88
2022-10-17T12:24:53.009Z,3.50
2022-10-17T12:27:40.416Z,3.50
2022-10-17T12:33:05.678Z,3.50
2022-10-17T12:35:35.421Z,3.85
2022-10-17T12:38:24.156Z,3.60
2022-10-17T12:40:55.813Z,3.75
2022-10-17T12:43:28.484Z,3.90
2022-10-17T12:45:56.826Z,3.80
2022-10-17T12:48:43.659Z,4.15
2022-10-17T12:51:35.358Z,4.25
2022-10-17T12:54:12.477Z,3.47
2022-10-17T12:56:46.092Z,3.83
2022-10-17T12:59:18.738Z,4.05
2022-10-17T13:01:48.408Z,4.47
2022-10-17T13:04:16.111Z,3.92
2022-10-17T13:06:55.829Z,3.83
2022-10-17T13:09:29.008Z,3.90
2022-10-17T13:11:58.828Z,4.43
2022-10-17T13:14:26.823Z,3.80
2022-10-17T13:16:57.934Z,4.13
2022-10-17T13:19:31.909Z,4.05
2022-10-17T13:22:10.492Z,4.28
2022-10-17T13:24:39.863Z,4.10
2022-10-17T13:27:22.801Z,3.92
2022-10-17T13:29:49.688Z,4.00
2022-10-17T13:32:19.257Z,4.30
2022-10-17T13:34:46.068Z,4.30
2022-10-17T13:37:15.733Z,4.22
2022-10-17T13:39:56.777Z,4.15
2022-10-17T13:42:30.331Z,4.30
2022-10-17T13:44:58.698Z,4.50
2022-10-17T13:47:36.960Z,3.90
2022-10-17T13:50:12.766Z,4.10
2022-10-17T13:52:48.272Z,4.40
2022-10-17T13:55:20.362Z,4.07
2022-10-17T13:57:47.420Z,4.35
2022-10-17T14:00:23.282Z,3.70
2022-10-17T14:02:49.917Z,3.55
2022-10-17T14:05:20.489Z,3.97
2022-10-17T14:08:12.032Z,3.88
2022-10-17T14:10:42.558Z,4.05
2022-10-17T14:13:24.046Z,4.20
2022-10-17T14:15:56.096Z,3.78
2022-10-17T14:18:35.724Z,3.90
2022-10-17T14:23:52.724Z,3.63
2022-10-17T14:26:22.554Z,3.65
2022-10-17T14:29:20.772Z,3.58
2022-10-17T14:31:50.719Z,3.78
2022-10-17T14:34:24.106Z,3.50
2022-10-17T14:36:53.161Z,3.97
2022-10-17T14:39:22.784Z,3.75
2022-10-17T14:41:50.313Z,3.67
2022-10-17T14:44:32.057Z,3.90
2022-10-17T14:47:38.034Z,3.97
2022-10-17T14:50:28.315Z,3.50
2022-10-17T14:53:13.225Z,3.67
2022-10-17T14:55:53.943Z,3.78
2022-10-17T14:58:33.967Z,3.78
2022-10-17T15:01:02.388Z,4.03
2022-10-17T15:03:31.217Z,4.05
2022-10-17T15:05:59.405Z,3.70
2022-10-17T15:08:28.432Z,3.83
2022-10-17T15:10:55.039Z,3.90
2022-10-17T15:13:32.273Z,4.00
2022-10-17T15:16:07.090Z,4.00
2022-10-17T15:18:34.412Z,3.90
2022-10-17T15:21:05.206Z,4.20
2022-10-17T15:23:39.234Z,4.63
2022-10-17T15:26:26.658Z,4.40
2022-10-17T15:31:27.702Z,4.18
2022-10-17T15:33:54.268Z,4.13
2022-10-17T15:36:38.722Z,4.68
2022-10-17T15:39:05.553Z,4.10
2022-10-17T15:41:32.826Z,4.50
2022-10-17T15:44:00.349Z,4.50
2022-10-17T15:46:29.607Z,4.43
2022-10-17T15:48:57.412Z,3.85
2022-10-17T15:53:51.227Z,4.00
2022-10-17T15:56:25.008Z,4.57
2022-10-17T15:58:52.263Z,4.20
2022-10-17T16:01:23.533Z,4.38
2022-10-17T16:03:51.327Z,4.60
2022-10-17T16:08:48.929Z,4.57
2022-10-17T16:11:37.538Z,4.07
2022-10-17T16:14:07.212Z,4.90
2022-10-17T16:16:34.420Z,4.75
2022-10-17T16:19:03.910Z,3.70
2022-10-17T16:21:33.686Z,4.43
2022-10-17T16:24:01.061Z,4.03
2022-10-17T16:26:28.829Z,4.43
2022-10-17T16:31:29.733Z,3.90
2022-10-17T16:33:58.526Z,4.32
2022-10-17T16:36:25.351Z,4.82
2022-10-17T16:38:54.079Z,4.50
2022-10-17T16:41:22.769Z,4.70
2022-10-17T16:43:50.747Z,4.78
2022-10-17T16:46:20.679Z,4.00
2022-10-17T16:48:47.875Z,4.10
2022-10-17T16:51:15.741Z,4.75
2022-10-17T16:56:32.887Z,4.20
2022-10-17T16:59:00.776Z,3.95
2022-10-17T17:01:31.730Z,4.57
2022-10-17T17:03:58.656Z,4.45
2022-10-17T17:06:28.086Z,4.47
2022-10-17T17:08:56.247Z,4.30
2022-10-17T17:11:24.978Z,4.60
2022-10-17T17:13:54.370Z,4.30
2022-10-17T17:16:25.890Z,4.13
2022-10-17T17:19:12.535Z,4.65
2022-10-17T17:21:39.361Z,4.70
2022-10-17T17:24:07.342Z,4.88
2022-10-17T17:26:37.775Z,4.65
2022-10-17T17:29:05.197Z,4.50
2022-10-17T17:31:34.118Z,4.70
2022-10-17T17:34:01.238Z,4.68
2022-10-17T17:36:36.460Z,4.50
2022-10-17T17:39:06.111Z,4.60
2022-10-17T17:41:33.262Z,4.57
2022-10-17T17:44:01.475Z,4.88
2022-10-17T17:46:28.347Z,4.65
2022-10-17T17:48:55.576Z,4.63
2022-10-17T17:51:28.491Z,4.78
2022-10-17T17:53:57.178Z,4.90
2022-10-17T18:01:36.911Z,4.75
2022-10-17T18:04:05.191Z,5.38
2022-10-17T18:06:31.956Z,5.28
2022-10-17T18:09:02.060Z,6.13
2022-10-17T18:11:29.480Z,5.60
2022-10-17T18:13:58.259Z,5.20
2022-10-17T18:16:26.111Z,6.13
2022-10-17T18:21:20.188Z,5.45
2022-10-17T18:23:51.715Z,5.72
2022-10-17T18:26:19.300Z,6.15
2022-10-17T18:28:46.335Z,6.32
2022-10-17T18:31:16.034Z,6.23
2022-10-17T18:33:44.885Z,6.43
2022-10-17T18:36:14.236Z,6.53
2022-10-17T18:38:41.489Z,6.63
2022-10-17T18:41:15.360Z,6.07
2022-10-17T18:43:44.731Z,7.03
2022-10-17T18:46:17.133Z,7.10
2022-10-17T18:48:45.561Z,7.20
2022-10-17T18:51:13.754Z,6.43
2022-10-17T18:53:45.661Z,7.05
2022-10-17T18:56:12.801Z,7.32
2022-10-17T18:58:40.333Z,6.70
2022-10-17T19:01:10.395Z,7.85
2022-10-17T19:03:37.842Z,7.55
2022-10-17T19:06:10.156Z,7.97
2022-10-17T19:08:38.186Z,7.75
2022-10-17T19:11:07.466Z,7.70
2022-10-17T19:13:34.283Z,9.32
2022-10-17T19:16:04.586Z,7.85
2022-10-17T19:18:31.399Z,10.02
2022-10-17T19:21:02.768Z,14.05
2022-10-17T19:23:32.851Z,10.13
2022-10-17T19:26:10.914Z,8.52
2022-10-17T19:28:41.584Z,8.18
2022-10-17T19:31:08.403Z,8.45
2022-10-17T19:33:38.220Z,8.60
2022-10-17T19:36:07.982Z,8.23
2022-10-17T19:38:38.046Z,8.15
2022-10-17T19:41:13.020Z,8.88
2022-10-17T19:43:41.015Z,9.23
2022-10-17T19:46:12.659Z,9.10
2022-10-17T19:48:40.283Z,9.82
2022-10-17T19:51:11.436Z,11.23
2022-10-17T19:53:40.452Z,10.38
2022-10-17T19:56:07.874Z,9.20
2022-10-17T19:58:40.791Z,8.75
2022-10-17T20:01:07.550Z,9.40
2022-10-17T20:03:34.420Z,8.82
2022-10-17T20:06:03.361Z,9.90
2022-10-17T20:08:32.685Z,12.23
2022-10-17T20:11:08.009Z,9.65
2022-10-17T20:13:36.649Z,9.55
2022-10-17T20:16:04.824Z,9.05
2022-10-17T20:18:31.848Z,9.35
2022-10-17T20:21:04.777Z,10.20
2022-10-17T20:23:31.722Z,10.55
2022-10-17T20:26:08.642Z,10.43
2022-10-17T20:28:50.806Z,11.00
2022-10-17T20:31:17.877Z,11.03
2022-10-17T20:33:44.987Z,11.43
2022-10-17T20:36:15.252Z,11.75
2022-10-17T20:38:41.933Z,10.98
2022-10-17T20:41:13.836Z,10.98
2022-10-17T20:43:43.071Z,10.88
2022-10-17T20:46:29.377Z,10.60
2022-10-17T20:49:02.348Z,11.32
2022-10-17T20:51:29.148Z,11.10
2022-10-17T20:56:30.009Z,11.55
2022-10-17T20:59:02.001Z,10.77
2022-10-17T21:01:31.162Z,11.52
2022-10-17T21:04:15.822Z,11.10
2022-10-17T21:06:53.768Z,10.70
2022-10-17T21:09:21.830Z,10.65
2022-10-17T21:11:51.443Z,10.93
2022-10-17T21:14:18.485Z,10.68
2022-10-17T21:16:45.260Z,10.02
2022-10-17T21:19:13.496Z,11.02
2022-10-17T21:21:42.670Z,11.40
2022-10-17T21:24:18.413Z,10.93
2022-10-17T21:26:46.514Z,10.88
2022-10-17T21:29:14.026Z,10.75
2022-10-17T21:31:42.721Z,11.25
2022-10-17T21:34:37.402Z,11.55
2022-10-17T21:37:09.989Z,10.63
2022-10-17T21:39:39.049Z,11.43
2022-10-17T21:42:07.119Z,11.07
2022-10-17T21:44:36.268Z,10.55
2022-10-17T21:47:05.554Z,10.15
2022-10-17T21:49:32.201Z,9.65
2022-10-17T21:52:01.422Z,8.95
2022-10-17T21:54:28.689Z,9.68
2022-10-17T21:56:55.902Z,8.93
2022-10-17T21:59:22.414Z,8.50
2022-10-17T22:01:49.272Z,8.68
2022-10-17T22:04:18.417Z,7.80
2022-10-17T22:06:51.123Z,6.75
2022-10-17T22:09:23.744Z,6.47
2022-10-17T22:11:52.749Z,6.70
2022-10-17T22:14:22.331Z,4.53
2022-10-17T22:16:50.015Z,4.63
2022-10-17T22:19:20.874Z,4.10
2022-10-17T22:21:51.380Z,3.92
2022-10-17T22:24:22.859Z,4.25
2022-10-17T22:26:50.140Z,3.20
2022-10-17T22:29:17.065Z,3.97
2022-10-17T22:31:46.422Z,4.45
2022-10-17T22:34:15.461Z,4.28
2022-10-17T22:36:44.987Z,4.97
2022-10-17T22:39:12.238Z,4.45
2022-10-17T22:41:38.894Z,4.13
2022-10-17T22:44:05.712Z,4.63
2022-10-17T22:46:32.794Z,4.53
2022-10-17T22:48:59.597Z,4.70
2022-10-17T22:51:27.082Z,3.85
2022-10-17T22:53:56.132Z,4.75
2022-10-17T22:56:23.929Z,4.30
2022-10-17T22:58:50.966Z,4.25
2022-10-17T23:01:21.305Z,4.47
2022-10-17T23:03:51.406Z,5.57
2022-10-17T23:06:18.477Z,5.40
2022-10-17T23:08:47.754Z,5.40
2022-10-17T23:11:14.733Z,5.40
2022-10-17T23:13:44.098Z,5.20
2022-10-17T23:16:10.715Z,5.75
2022-10-17T23:18:38.555Z,6.55
2022-10-17T23:23:32.130Z,4.77
2022-10-17T23:26:09.966Z,4.82
2022-10-17T23:28:37.199Z,5.47
2022-10-17T23:31:18.254Z,5.03
2022-10-17T23:33:46.393Z,5.15
2022-10-17T23:36:15.376Z,4.93
2022-10-17T23:38:43.457Z,4.82
2022-10-17T23:41:10.935Z,6.22
2022-10-17T23:43:38.109Z,6.82
2022-10-17T23:46:06.073Z,6.40
2022-10-17T23:50:59.806Z,5.15
2022-10-17T23:53:28.963Z,6.00
2022-10-17T23:55:55.535Z,4.65
2022-10-17T23:58:22.398Z,6.18
